createdAt,value
2023-10-10T00:04:56.961Z,3.85
2023-10-10T00:10:00.878Z,3.38
2023-10-10T00:15:06.687Z,3.97
2023-10-10T00:20:17.522Z,3.97
2023-10-10T00:25:20.219Z,3.55
2023-10-10T00:30:23.667Z,3.72
2023-10-10T00:35:28.308Z,3.50
2023-10-10T00:40:34.410Z,3.60
2023-10-10T00:45:37.292Z,4.57
2023-10-10T00:50:44.225Z,4.07
2023-10-10T00:55:53.297Z,3.72
2023-10-10T01:00:56.357Z,3.28
2023-10-10T01:05:59.260Z,4.10
2023-10-10T01:11:04.983Z,3.42
2023-10-10T01:16:07.086Z,4.03
2023-10-10T01:21:10.128Z,4.05
2023-10-10T01:26:11.598Z,3.72
2023-10-10T01:31:18.876Z,4.07
2023-10-10T01:36:20.918Z,3.75
2023-10-10T01:41:24.519Z,3.55
2023-10-10T01:46:29.034Z,3.28
2023-10-10T01:51:34.423Z,3.67
2023-10-10T01:56:39.530Z,3.67
2023-10-10T02:01:42.742Z,3.90
2023-10-10T02:06:47.076Z,3.90
2023-10-10T02:11:51.788Z,3.65
2023-10-10T02:16:56.445Z,4.20
2023-10-10T02:22:23.845Z,3.70
2023-10-10T02:27:33.971Z,4.10
2023-10-10T02:32:36.629Z,4.00
2023-10-10T02:37:48.329Z,3.17
2023-10-10T02:43:11.518Z,3.75
2023-10-10T02:48:21.419Z,3.63
2023-10-10T02:53:23.450Z,3.42
2023-10-10T02:58:29.134Z,3.38
2023-10-10T03:03:30.690Z,4.07
2023-10-10T03:08:34.889Z,4.10
2023-10-10T03:13:43.621Z,3.75
2023-10-10T03:19:15.005Z,4.00
2023-10-10T03:24:23.634Z,4.03
2023-10-10T03:29:38.022Z,3.28
2023-10-10T03:34:46.125Z,4.25
2023-10-10T03:39:55.087Z,3.97
2023-10-10T03:45:15.377Z,3.83
2023-10-10T03:50:35.335Z,3.90
2023-10-10T03:55:56.475Z,4.07
2023-10-10T04:01:16.328Z,3.95
2023-10-10T04:06:36.542Z,3.50
2023-10-10T04:11:56.758Z,4.05
2023-10-10T04:17:16.995Z,4.72
2023-10-10T04:22:37.092Z,4.80
2023-10-10T04:27:56.808Z,5.85
2023-10-10T04:33:16.738Z,4.43
2023-10-10T04:38:36.639Z,5.00
2023-10-10T04:43:56.682Z,4.95
2023-10-10T04:49:16.387Z,4.75
2023-10-10T04:54:36.290Z,4.95
2023-10-10T04:59:56.224Z,3.88
2023-10-10T05:05:16.304Z,5.13
2023-10-10T05:10:36.548Z,5.32
2023-10-10T05:15:56.680Z,4.90
2023-10-10T05:21:16.545Z,4.55
2023-10-10T05:26:20.456Z,4.07
2023-10-10T05:31:22.820Z,4.97
2023-10-10T05:36:25.174Z,4.50
2023-10-10T05:41:26.663Z,5.25
2023-10-10T05:46:28.199Z,4.53
2023-10-10T05:51:30.959Z,4.82
2023-10-10T05:56:36.057Z,4.57
2023-10-10T06:01:38.711Z,4.22
2023-10-10T06:06:41.891Z,4.82
2023-10-10T06:11:45.107Z,4.00
2023-10-10T06:16:46.594Z,4.55
2023-10-10T06:21:48.059Z,5.80
2023-10-10T06:26:50.612Z,5.30
2023-10-10T06:31:52.054Z,6.22
2023-10-10T06:36:55.530Z,5.40
2023-10-10T06:41:58.292Z,5.90
2023-10-10T06:47:01.860Z,6.53
2023-10-10T06:52:03.383Z,5.78
2023-10-10T06:57:04.756Z,6.10
2023-10-10T07:02:20.920Z,6.07
2023-10-10T07:07:23.094Z,5.88
2023-10-10T07:12:25.381Z,6.10
2023-10-10T07:17:29.727Z,6.65
2023-10-10T07:22:35.746Z,6.18
2023-10-10T07:27:42.468Z,6.40
2023-10-10T07:32:49.732Z,6.65
2023-10-10T07:37:53.644Z,6.10
2023-10-10T07:43:00.527Z,5.80
2023-10-10T07:48:02.266Z,5.30
2023-10-10T07:53:07.018Z,6.45
2023-10-10T07:58:11.664Z,5.70
2023-10-10T08:03:20.385Z,6.03
2023-10-10T08:08:26.140Z,6.03
2023-10-10T08:13:29.828Z,5.35
2023-10-10T08:18:43.406Z,6.50
2023-10-10T08:23:47.280Z,6.97
2023-10-10T08:28:50.085Z,7.07
2023-10-10T08:33:51.504Z,7.50
2023-10-10T08:38:54.472Z,8.43
2023-10-10T08:43:59.388Z,7.90
2023-10-10T08:49:05.779Z,7.60
2023-10-10T08:54:13.830Z,7.30
2023-10-10T08:59:18.999Z,6.60
2023-10-10T09:04:21.579Z,6.63
2023-10-10T09:09:41.697Z,6.93
2023-10-10T09:14:45.046Z,7.03
2023-10-10T09:19:48.047Z,5.53
2023-10-10T09:24:50.741Z,5.80
2023-10-10T09:29:57.229Z,5.25
2023-10-10T09:34:59.271Z,4.00
2023-10-10T09:40:06.076Z,4.72
2023-10-10T09:45:46.633Z,4.28
2023-10-10T09:51:08.069Z,4.15
2023-10-10T09:56:10.870Z,3.90
2023-10-10T10:01:24.100Z,3.42
2023-10-10T10:06:52.423Z,4.65
2023-10-10T10:12:34.171Z,3.50
2023-10-10T10:17:55.441Z,3.05
2023-10-10T10:23:01.276Z,3.95
2023-10-10T10:28:11.619Z,3.17
2023-10-10T10:33:13.323Z,3.50
2023-10-10T10:38:18.311Z,3.83
2023-10-10T10:43:22.946Z,3.67
2023-10-10T10:48:31.068Z,3.75
2023-10-10T10:53:39.996Z,3.97
2023-10-10T10:58:56.626Z,4.53
2023-10-10T11:03:58.065Z,4.07
2023-10-10T11:09:25.416Z,4.15
2023-10-10T11:14:30.216Z,3.85
2023-10-10T11:19:32.359Z,3.03
2023-10-10T11:24:35.711Z,4.18
2023-10-10T11:30:01.702Z,4.13
2023-10-10T11:35:33.944Z,3.47
2023-10-10T11:40:37.699Z,3.38
2023-10-10T11:45:41.779Z,3.35
2023-10-10T11:50:52.255Z,3.15
2023-10-10T11:55:55.572Z,3.08
2023-10-10T12:01:09.411Z,2.75
2023-10-10T12:06:15.366Z,3.65
2023-10-10T12:11:21.421Z,3.00
2023-10-10T12:16:26.273Z,3.08
2023-10-10T12:21:27.982Z,3.22
2023-10-10T12:26:30.983Z,3.00
2023-10-10T12:31:35.678Z,2.90
2023-10-10T12:36:37.748Z,2.67
2023-10-10T12:41:47.145Z,3.55
2023-10-10T12:46:48.676Z,3.50
2023-10-10T12:51:50.163Z,3.13
2023-10-10T12:56:59.426Z,2.90
2023-10-10T13:02:05.015Z,3.90
2023-10-10T13:07:06.654Z,3.60
2023-10-10T13:12:08.081Z,3.45
2023-10-10T13:17:31.465Z,2.88
2023-10-10T13:22:33.265Z,2.92
2023-10-10T13:27:34.686Z,3.67
2023-10-10T13:32:36.125Z,3.03
2023-10-10T13:37:42.151Z,3.47
2023-10-10T13:42:43.574Z,3.10
2023-10-10T13:47:49.253Z,2.63
2023-10-10T13:52:50.896Z,2.90
2023-10-10T13:57:54.687Z,2.63
2023-10-10T14:03:04.505Z,3.00
2023-10-10T14:08:18.816Z,2.42
2023-10-10T14:13:20.917Z,3.15
2023-10-10T14:18:24.583Z,3.20
2023-10-10T14:23:26.323Z,2.70
2023-10-10T14:28:29.449Z,2.67
2023-10-10T14:33:30.887Z,2.83
2023-10-10T14:38:32.989Z,2.72
2023-10-10T14:43:35.252Z,3.08
2023-10-10T14:48:36.678Z,2.92
2023-10-10T14:53:39.030Z,2.35
2023-10-10T14:58:40.466Z,2.38
2023-10-10T15:03:42.763Z,2.65
2023-10-10T15:08:46.958Z,2.97
2023-10-10T15:13:49.036Z,2.67
2023-10-10T15:18:54.426Z,2.47
2023-10-10T15:23:56.348Z,3.03
2023-10-10T15:28:58.479Z,2.70
2023-10-10T15:33:59.860Z,3.33
2023-10-10T15:39:09.587Z,2.10
2023-10-10T15:44:13.364Z,3.35
2023-10-10T15:54:20.239Z,2.60
2023-10-10T15:59:21.732Z,2.65
2023-10-10T16:04:24.880Z,2.67
2023-10-10T16:09:32.183Z,2.47
2023-10-10T16:14:37.829Z,2.90
2023-10-10T16:19:43.130Z,3.13
2023-10-10T16:24:44.706Z,2.20
2023-10-10T16:29:46.907Z,3.45
2023-10-10T16:34:48.638Z,3.20
2023-10-10T16:39:50.807Z,3.75
2023-10-10T16:44:54.565Z,4.18
2023-10-10T16:49:56.425Z,3.75
2023-10-10T16:54:58.372Z,4.32
2023-10-10T16:59:59.935Z,4.60
2023-10-10T17:05:02.355Z,5.22
2023-10-10T17:10:07.074Z,4.65
2023-10-10T17:15:15.274Z,5.93
2023-10-10T17:20:19.497Z,6.50
2023-10-10T17:25:20.962Z,5.15
2023-10-10T17:30:22.812Z,3.83
2023-10-10T17:35:24.296Z,4.60
2023-10-10T17:40:25.842Z,4.90
2023-10-10T17:45:27.304Z,5.00
2023-10-10T17:50:32.038Z,4.93
2023-10-10T17:55:36.068Z,4.85
2023-10-10T18:00:37.791Z,3.95
2023-10-10T18:05:40.686Z,4.07
2023-10-10T18:10:43.164Z,4.90
2023-10-10T18:15:47.475Z,4.28
2023-10-10T18:20:50.245Z,5.25
2023-10-10T18:25:51.874Z,4.88
2023-10-10T18:30:53.494Z,4.05
2023-10-10T18:35:55.568Z,4.57
2023-10-10T18:40:58.071Z,4.25
2023-10-10T18:46:01.646Z,4.30
2023-10-10T18:51:04.148Z,4.15
2023-10-10T18:56:06.728Z,5.63
2023-10-10T19:01:12.606Z,5.15
2023-10-10T19:06:15.216Z,5.68
2023-10-10T19:11:24.514Z,4.68
2023-10-10T19:16:26.314Z,4.18
2023-10-10T19:21:31.725Z,4.60
2023-10-10T19:26:35.053Z,5.20
2023-10-10T19:31:41.626Z,4.32
2023-10-10T19:36:44.220Z,4.30
2023-10-10T19:41:45.932Z,4.32
2023-10-10T19:46:47.754Z,4.03
2023-10-10T19:51:50.462Z,4.82
2023-10-10T19:56:52.086Z,4.65
2023-10-10T20:01:53.813Z,4.78
2023-10-10T20:06:55.747Z,3.90
2023-10-10T20:11:58.005Z,3.58
2023-10-10T20:16:59.649Z,4.30
2023-10-10T20:22:01.183Z,5.10
2023-10-10T20:27:05.070Z,4.65
2023-10-10T20:32:07.752Z,4.13
2023-10-10T20:37:11.191Z,4.05
2023-10-10T20:42:12.579Z,4.03
2023-10-10T20:47:13.971Z,3.88
2023-10-10T20:52:16.658Z,3.83
2023-10-10T20:57:18.035Z,5.15
2023-10-10T21:02:19.401Z,4.40
2023-10-10T21:07:20.790Z,3.47
2023-10-10T21:12:22.327Z,3.17
2023-10-10T21:17:24.420Z,3.60
2023-10-10T21:22:28.342Z,3.33
2023-10-10T21:27:29.777Z,4.97
2023-10-10T21:32:31.483Z,3.83
2023-10-10T21:37:33.041Z,3.45
2023-10-10T21:42:34.447Z,3.67
2023-10-10T21:47:36.047Z,3.65
2023-10-10T21:52:39.450Z,3.47
2023-10-10T21:57:41.666Z,3.17
2023-10-10T22:02:45.433Z,3.95
2023-10-10T22:07:48.052Z,3.05
2023-10-10T22:12:51.871Z,3.38
2023-10-10T22:17:57.914Z,3.08
2023-10-10T22:22:59.711Z,3.28
2023-10-10T22:28:02.190Z,3.33
2023-10-10T22:33:04.911Z,2.90
2023-10-10T22:38:06.884Z,3.15
2023-10-10T22:43:11.317Z,4.10
2023-10-10T22:48:15.621Z,4.00
2023-10-10T22:53:17.896Z,3.35
2023-10-10T22:58:21.354Z,4.47
2023-10-10T23:03:24.259Z,3.63
2023-10-10T23:08:26.167Z,4.40
2023-10-10T23:13:27.576Z,3.40
2023-10-10T23:18:29.103Z,3.53
2023-10-10T23:23:30.590Z,3.95
2023-10-10T23:28:32.993Z,3.00
2023-10-10T23:33:34.442Z,3.97
2023-10-10T23:38:36.038Z,3.65
2023-10-10T23:43:38.296Z,3.28
2023-10-10T23:48:40.778Z,2.95
2023-10-10T23:53:42.258Z,4.03
2023-10-10T23:58:44.256Z,3.58
